createdAt,value
2022-09-17T00:01:04.520Z,100222.06
2022-09-17T00:03:33.748Z,100225.59
2022-09-17T00:06:02.584Z,100223.44
2022-09-17T00:08:29.915Z,100229.94
2022-09-17T00:10:56.538Z,100227.44
2022-09-17T00:13:23.510Z,100223.38
2022-09-17T00:15:51.764Z,100229.44
2022-09-17T00:18:18.713Z,100237.94
2022-09-17T00:20:47.405Z,100235.97
2022-09-17T00:23:14.805Z,100230.75
2022-09-17T00:25:43.684Z,100245.34
2022-09-17T00:28:11.381Z,100248.06
2022-09-17T00:30:44.250Z,100248.88
2022-09-17T00:33:16.442Z,100246.91
2022-09-17T00:35:44.573Z,100249.16
2022-09-17T00:38:12.073Z,100248.06
2022-09-17T00:40:39.468Z,100241.81
2022-09-17T00:43:12.122Z,100246.97
2022-09-17T00:45:40.058Z,100248.63
2022-09-17T00:48:07.033Z,100256.84
2022-09-17T00:50:42.117Z,100252.53
2022-09-17T00:53:12.194Z,100258.13
2022-09-17T00:55:54.851Z,100248.41
2022-09-17T00:58:23.435Z,100249.22
2022-09-17T01:00:49.916Z,100249.75
2022-09-17T01:03:16.522Z,100254.66
2022-09-17T01:05:50.403Z,100252.28
2022-09-17T01:08:35.679Z,100253.94
2022-09-17T01:11:30.783Z,100248.78
2022-09-17T01:14:11.167Z,100252.88
2022-09-17T01:16:46.404Z,100246.94
2022-09-17T01:19:42.717Z,100247.47
2022-09-17T01:22:22.111Z,100255.59
2022-09-17T01:25:14.988Z,100246.09
2022-09-17T01:28:00.143Z,100256.09
2022-09-17T01:30:56.726Z,100253.72
2022-09-17T01:33:28.761Z,100260.88
2022-09-17T01:36:30.152Z,100254.56
2022-09-17T01:39:16.827Z,100262.41
2022-09-17T01:42:05.583Z,100269.53
2022-09-17T01:44:47.243Z,100260.31
2022-09-17T01:47:22.775Z,100261.19
2022-09-17T01:49:53.465Z,100272.19
2022-09-17T01:52:20.648Z,100275.88
2022-09-17T01:54:53.367Z,100276.84
2022-09-17T01:57:24.546Z,100279.63
2022-09-17T02:00:01.025Z,100276.47
2022-09-17T02:02:50.032Z,100282.72
2022-09-17T02:05:27.295Z,100291.75
2022-09-17T02:07:58.510Z,100286.00
2022-09-17T02:10:34.524Z,100294.59
2022-09-17T02:13:08.455Z,100278.63
2022-09-17T02:15:40.179Z,100279.94
2022-09-17T02:18:15.407Z,100284.81
2022-09-17T02:20:50.423Z,100291.72
2022-09-17T02:23:23.762Z,100301.22
2022-09-17T02:25:57.129Z,100295.03
2022-09-17T02:28:40.845Z,100301.28
2022-09-17T02:31:08.528Z,100291.75
2022-09-17T02:33:38.485Z,100290.94
2022-09-17T02:36:05.621Z,100288.31
2022-09-17T02:38:32.421Z,100296.47
2022-09-17T02:41:18.161Z,100297.84
2022-09-17T02:44:09.543Z,100298.50
2022-09-17T02:46:57.999Z,100293.59
2022-09-17T02:49:37.356Z,100289.84
2022-09-17T02:52:23.101Z,100287.91
2022-09-17T02:55:16.669Z,100296.88
2022-09-17T02:57:58.717Z,100294.72
2022-09-17T03:00:28.306Z,100297.44
2022-09-17T03:03:33.113Z,100300.75
2022-09-17T03:06:00.432Z,100285.81
2022-09-17T03:08:34.897Z,100294.19
2022-09-17T03:11:02.370Z,100298.59
2022-09-17T03:13:28.772Z,100292.13
2022-09-17T03:15:55.447Z,100301.59
2022-09-17T03:18:22.026Z,100298.34
2022-09-17T03:20:48.440Z,100305.72
2022-09-17T03:23:15.498Z,100301.72
2022-09-17T03:25:42.266Z,100296.47
2022-09-17T03:28:10.790Z,100308.47
2022-09-17T03:30:38.689Z,100312.03
2022-09-17T03:33:05.165Z,100313.94
2022-09-17T03:35:31.513Z,100306.63
2022-09-17T03:37:58.034Z,100306.84
2022-09-17T03:40:24.583Z,100303.63
2022-09-17T03:42:51.696Z,100303.88
2022-09-17T03:45:18.098Z,100307.72
2022-09-17T03:47:44.835Z,100312.63
2022-09-17T03:50:11.368Z,100315.34
2022-09-17T03:52:38.502Z,100308.53
2022-09-17T03:55:05.336Z,100317.53
2022-09-17T03:57:31.695Z,100323.81
2022-09-17T03:59:58.143Z,100323.22
2022-09-17T04:02:24.565Z,100324.34
2022-09-17T04:04:53.390Z,100321.59
2022-09-17T04:07:19.854Z,100325.94
2022-09-17T04:09:46.269Z,100338.16
2022-09-17T04:12:12.766Z,100341.41
2022-09-17T04:14:39.657Z,100343.81
2022-09-17T04:17:06.020Z,100344.13
2022-09-17T04:19:32.853Z,100347.34
2022-09-17T04:22:00.148Z,100353.63
2022-09-17T04:24:28.092Z,100348.75
2022-09-17T04:26:54.725Z,100353.91
2022-09-17T04:29:21.145Z,100353.88
2022-09-17T04:31:47.658Z,100352.53
2022-09-17T04:34:14.061Z,100362.00
2022-09-17T04:36:40.833Z,100371.22
2022-09-17T04:39:07.631Z,100363.06
2022-09-17T04:41:34.132Z,100358.19
2022-09-17T04:44:00.630Z,100347.88
2022-09-17T04:46:30.043Z,100357.66
2022-09-17T04:48:56.558Z,100356.25
2022-09-17T04:51:22.954Z,100357.34
2022-09-17T04:53:49.307Z,100359.78
2022-09-17T04:56:15.777Z,100362.44
2022-09-17T04:58:42.567Z,100365.44
2022-09-17T05:01:09.116Z,100368.44
2022-09-17T05:03:35.667Z,100369.28
2022-09-17T05:06:02.049Z,100369.03
2022-09-17T05:08:28.487Z,100373.63
2022-09-17T05:10:54.955Z,100372.31
2022-09-17T05:13:21.393Z,100372.34
2022-09-17T05:15:47.920Z,100376.97
2022-09-17T05:18:14.755Z,100371.25
2022-09-17T05:20:41.417Z,100377.22
2022-09-17T05:23:08.802Z,100381.81
2022-09-17T05:25:35.209Z,100379.94
2022-09-17T05:28:02.723Z,100392.69
2022-09-17T05:30:30.041Z,100389.72
2022-09-17T05:33:04.592Z,100386.50
2022-09-17T05:35:33.455Z,100388.41
2022-09-17T05:38:05.326Z,100395.44
2022-09-17T05:40:33.050Z,100402.75
2022-09-17T05:43:04.618Z,100398.44
2022-09-17T05:45:33.272Z,100403.59
2022-09-17T05:48:02.678Z,100389.78
2022-09-17T05:50:30.082Z,100399.59
2022-09-17T05:52:56.863Z,100403.66
2022-09-17T05:55:24.027Z,100402.28
2022-09-17T05:57:52.070Z,100400.69
2022-09-17T06:00:18.944Z,100409.09
2022-09-17T06:02:45.639Z,100405.84
2022-09-17T06:05:12.538Z,100408.00
2022-09-17T06:07:39.854Z,100408.00
2022-09-17T06:10:08.783Z,100412.63
2022-09-17T06:12:38.034Z,100425.13
2022-09-17T06:15:05.277Z,100415.63
2022-09-17T06:17:36.030Z,100425.66
2022-09-17T06:20:04.493Z,100424.56
2022-09-17T06:22:31.296Z,100424.00
2022-09-17T06:24:57.709Z,100420.22
2022-09-17T06:27:24.202Z,100424.78
2022-09-17T06:29:50.557Z,100422.56
2022-09-17T06:32:17.012Z,100441.84
2022-09-17T06:34:44.025Z,100429.00
2022-09-17T06:37:10.545Z,100429.25
2022-09-17T06:39:37.625Z,100431.16
2022-09-17T06:42:04.397Z,100439.84
2022-09-17T06:44:32.325Z,100438.75
2022-09-17T06:46:58.740Z,100450.13
2022-09-17T06:49:25.193Z,100440.97
2022-09-17T06:51:51.905Z,100447.41
2022-09-17T06:54:18.631Z,100443.38
2022-09-17T06:56:47.647Z,100448.81
2022-09-17T06:59:14.136Z,100451.78
2022-09-17T07:01:40.915Z,100460.94
2022-09-17T07:04:07.688Z,100455.19
2022-09-17T07:06:34.352Z,100459.78
2022-09-17T07:09:00.786Z,100449.75
2022-09-17T07:11:29.171Z,100447.13
2022-09-17T07:13:56.196Z,100440.13
2022-09-17T07:16:23.562Z,100445.03
2022-09-17T07:18:50.095Z,100448.81
2022-09-17T07:21:16.514Z,100431.69
2022-09-17T07:23:42.866Z,100432.47
2022-09-17T07:26:14.534Z,100439.28
2022-09-17T07:28:44.210Z,100424.34
2022-09-17T07:31:16.095Z,100434.63
2022-09-17T07:33:43.180Z,100429.44
2022-09-17T07:36:15.325Z,100426.63
2022-09-17T07:38:41.889Z,100427.38
2022-09-17T07:41:13.767Z,100433.59
2022-09-17T07:43:41.447Z,100431.34
2022-09-17T07:46:18.006Z,100425.50
2022-09-17T07:48:46.033Z,100425.03
2022-09-17T07:51:21.902Z,100439.69
2022-09-17T07:53:51.991Z,100428.47
2022-09-17T07:56:18.709Z,100433.50
2022-09-17T07:58:45.228Z,100435.13
2022-09-17T08:01:13.536Z,100431.25
2022-09-17T08:03:40.266Z,100431.50
2022-09-17T08:06:09.107Z,100427.75
2022-09-17T08:08:36.712Z,100436.63
2022-09-17T08:11:08.018Z,100438.53
2022-09-17T08:13:34.626Z,100426.56
2022-09-17T08:16:15.938Z,100439.25
2022-09-17T08:18:44.199Z,100439.72
2022-09-17T08:21:13.545Z,100423.63
2022-09-17T08:23:42.049Z,100426.97
2022-09-17T08:26:13.325Z,100433.47
2022-09-17T08:28:40.281Z,100428.31
2022-09-17T08:31:08.883Z,100424.47
2022-09-17T08:33:39.340Z,100427.66
2022-09-17T08:36:08.887Z,100428.75
2022-09-17T08:38:39.132Z,100416.97
2022-09-17T08:41:11.686Z,100410.03
2022-09-17T08:43:45.286Z,100422.22
2022-09-17T08:46:12.634Z,100420.00
2022-09-17T08:48:50.107Z,100418.50
2022-09-17T08:51:54.674Z,100403.13
2022-09-17T08:54:33.549Z,100406.56
2022-09-17T08:57:15.867Z,100414.97
2022-09-17T08:59:50.910Z,100416.16
2022-09-17T09:02:41.820Z,100420.88
2022-09-17T09:05:17.955Z,100407.59
2022-09-17T09:07:52.109Z,100417.91
2022-09-17T09:10:27.423Z,100405.16
2022-09-17T09:12:55.903Z,100413.72
2022-09-17T09:15:47.303Z,100433.41
2022-09-17T09:18:21.377Z,100413.03
2022-09-17T09:20:49.832Z,100408.66
2022-09-17T09:23:48.491Z,100408.88
2022-09-17T09:26:20.553Z,100412.22
2022-09-17T09:28:56.103Z,100412.41
2022-09-17T09:31:41.435Z,100413.63
2022-09-17T09:34:10.541Z,100411.41
2022-09-17T09:36:38.781Z,100413.16
2022-09-17T09:39:17.927Z,100405.19
2022-09-17T09:42:26.883Z,100417.63
2022-09-17T09:44:53.823Z,100415.41
2022-09-17T09:47:32.586Z,100413.91
2022-09-17T09:50:09.029Z,100411.56
2022-09-17T09:52:48.250Z,100406.50
2022-09-17T09:55:36.789Z,100402.34
2022-09-17T09:58:17.670Z,100401.94
2022-09-17T10:00:44.207Z,100427.75
2022-09-17T10:03:19.665Z,100393.75
2022-09-17T10:06:02.113Z,100403.34
2022-09-17T10:08:31.341Z,100407.47
2022-09-17T10:11:02.018Z,100403.00
2022-09-17T10:13:31.713Z,100398.03
2022-09-17T10:16:16.827Z,100404.50
2022-09-17T10:18:44.282Z,100404.16
2022-09-17T10:21:21.171Z,100394.66
2022-09-17T10:23:48.379Z,100387.00
2022-09-17T10:26:27.534Z,100400.78
2022-09-17T10:28:56.093Z,100388.91
2022-09-17T10:31:23.305Z,100392.66
2022-09-17T10:33:57.710Z,100390.78
2022-09-17T10:36:42.549Z,100386.34
2022-09-17T10:39:44.267Z,100387.56
2022-09-17T10:42:18.882Z,100377.47
2022-09-17T10:44:58.930Z,100374.69
2022-09-17T10:47:29.467Z,100380.34
2022-09-17T10:50:00.590Z,100376.81
2022-09-17T10:52:47.761Z,100387.63
2022-09-17T10:55:26.558Z,100368.78
2022-09-17T10:58:16.097Z,100377.16
2022-09-17T11:00:53.375Z,100383.44
2022-09-17T11:04:02.310Z,100375.66
2022-09-17T11:07:03.609Z,100392.38
2022-09-17T11:09:51.955Z,100391.38
2022-09-17T11:12:42.077Z,100384.28
2022-09-17T11:15:23.589Z,100380.50
2022-09-17T11:18:04.211Z,100371.47
2022-09-17T11:21:04.714Z,100376.16
2022-09-17T11:24:00.615Z,100391.69
2022-09-17T11:26:45.402Z,100393.13
2022-09-17T11:29:41.157Z,100379.69
2022-09-17T11:32:29.733Z,100397.47
2022-09-17T11:35:08.079Z,100385.03
2022-09-17T11:37:48.847Z,100380.41
2022-09-17T11:40:23.895Z,100374.09
2022-09-17T11:43:00.987Z,100372.44
2022-09-17T11:45:32.306Z,100380.22
2022-09-17T11:48:16.973Z,100372.03
2022-09-17T11:50:50.044Z,100367.56
2022-09-17T11:53:35.142Z,100370.28
2022-09-17T11:56:10.199Z,100368.66
2022-09-17T11:58:49.773Z,100372.25
2022-09-17T12:01:26.054Z,100367.94
2022-09-17T12:04:02.111Z,100367.88
2022-09-17T12:06:39.081Z,100372.59
2022-09-17T12:09:20.333Z,100375.13
2022-09-17T12:11:58.116Z,100374.22
2022-09-17T12:14:36.356Z,100363.81
2022-09-17T12:17:04.356Z,100364.13
2022-09-17T12:19:55.107Z,100353.28
2022-09-17T12:22:25.848Z,100354.28
2022-09-17T12:24:54.901Z,100435.09
2022-09-17T12:27:30.198Z,100433.22
2022-09-17T12:30:09.199Z,100416.53
2022-09-17T12:33:07.340Z,100398.47
2022-09-17T12:36:04.919Z,100396.31
2022-09-17T12:39:06.673Z,100403.75
2022-09-17T12:42:02.095Z,100394.13
2022-09-17T12:44:31.712Z,100380.25
2022-09-17T12:47:21.328Z,100386.63
2022-09-17T12:50:11.422Z,100380.34
2022-09-17T12:52:55.918Z,100373.13
2022-09-17T12:55:30.977Z,100367.78
2022-09-17T12:58:27.019Z,100366.16
2022-09-17T13:01:07.219Z,100368.34
2022-09-17T13:03:42.942Z,100361.38
2022-09-17T13:06:28.072Z,100369.50
2022-09-17T13:09:33.099Z,100352.72
2022-09-17T13:12:15.414Z,100349.03
2022-09-17T13:14:55.889Z,100345.28
2022-09-17T13:18:00.844Z,100339.25
2022-09-17T13:21:02.425Z,100347.81
2022-09-17T13:23:45.489Z,100364.06
2022-09-17T13:26:17.204Z,100419.94
2022-09-17T13:28:49.654Z,100380.31
2022-09-17T13:31:44.686Z,100373.84
2022-09-17T13:34:17.421Z,100366.91
2022-09-17T13:36:47.522Z,100372.66
2022-09-17T13:39:35.639Z,100380.81
2022-09-17T13:42:14.617Z,100380.28
2022-09-17T13:44:50.097Z,100373.31
2022-09-17T13:47:25.693Z,100371.78
2022-09-17T13:50:04.010Z,100367.34
2022-09-17T13:52:59.669Z,100367.72
2022-09-17T13:55:40.370Z,100359.00
2022-09-17T13:58:12.941Z,100356.22
2022-09-17T14:01:03.380Z,100357.59
2022-09-17T14:03:44.146Z,100358.94
2022-09-17T14:06:11.372Z,100350.81
2022-09-17T14:08:45.704Z,100358.63
2022-09-17T14:11:21.290Z,100352.34
2022-09-17T14:13:57.754Z,100353.94
2022-09-17T14:16:50.153Z,100351.66
2022-09-17T14:19:16.878Z,100346.34
2022-09-17T14:21:57.255Z,100337.28
2022-09-17T14:24:25.680Z,100345.06
2022-09-17T14:27:11.331Z,100343.75
2022-09-17T14:29:50.222Z,100348.13
2022-09-17T14:32:22.200Z,100347.66
2022-09-17T14:34:49.750Z,100341.09
2022-09-17T14:37:20.592Z,100336.63
2022-09-17T14:39:48.928Z,100338.47
2022-09-17T14:42:22.166Z,100336.09
2022-09-17T14:45:00.761Z,100330.00
2022-09-17T14:47:28.297Z,100332.72
2022-09-17T14:49:55.266Z,100330.00
2022-09-17T14:52:32.672Z,100328.00
2022-09-17T14:55:20.399Z,100330.38
2022-09-17T14:57:51.600Z,100332.84
2022-09-17T15:00:22.025Z,100331.69
2022-09-17T15:02:55.488Z,100326.31
2022-09-17T15:05:23.750Z,100331.53
2022-09-17T15:07:50.580Z,100338.06
2022-09-17T15:10:22.044Z,100333.19
2022-09-17T15:12:50.862Z,100328.00
2022-09-17T15:15:23.185Z,100331.00
2022-09-17T15:17:51.174Z,100329.16
2022-09-17T15:20:28.751Z,100345.28
2022-09-17T15:23:04.715Z,100338.06
2022-09-17T15:25:32.277Z,100350.56
2022-09-17T15:28:04.964Z,100344.03
2022-09-17T15:30:31.805Z,100344.03
2022-09-17T15:33:02.779Z,100354.56
2022-09-17T15:35:33.740Z,100349.94
2022-09-17T15:38:22.156Z,100353.16
2022-09-17T15:40:49.709Z,100345.06
2022-09-17T15:43:29.948Z,100349.94
2022-09-17T15:45:58.189Z,100348.00
2022-09-17T15:48:27.464Z,100357.84
2022-09-17T15:50:59.293Z,100360.28
2022-09-17T15:53:27.936Z,100359.50
2022-09-17T15:56:13.199Z,100360.69
2022-09-17T15:58:42.808Z,100358.00
2022-09-17T16:01:18.506Z,100360.47
2022-09-17T16:03:44.975Z,100359.66
2022-09-17T16:06:25.255Z,100363.47
2022-09-17T16:08:57.880Z,100365.72
2022-09-17T16:11:26.534Z,100361.91
2022-09-17T16:13:55.274Z,100368.97
2022-09-17T16:16:33.478Z,100371.69
2022-09-17T16:19:00.136Z,100375.50
2022-09-17T16:21:26.878Z,100376.78
2022-09-17T16:23:54.042Z,100374.13
2022-09-17T16:26:23.375Z,100371.34
2022-09-17T16:28:53.860Z,100366.84
2022-09-17T16:31:21.027Z,100372.75
2022-09-17T16:33:52.332Z,100374.66
2022-09-17T16:36:19.255Z,100368.06
2022-09-17T16:38:45.845Z,100385.22
2022-09-17T16:41:13.198Z,100373.56
2022-09-17T16:43:40.456Z,100380.56
2022-09-17T16:46:12.732Z,100369.94
2022-09-17T16:48:41.474Z,100380.34
2022-09-17T16:51:12.220Z,100378.47
2022-09-17T16:53:40.131Z,100396.75
2022-09-17T16:56:09.022Z,100389.91
2022-09-17T16:58:36.151Z,100393.69
2022-09-17T17:01:28.687Z,100386.72
2022-09-17T17:03:56.170Z,100384.47
2022-09-17T17:06:22.639Z,100389.97
2022-09-17T17:08:49.270Z,100389.38
2022-09-17T17:11:16.078Z,100390.38
2022-09-17T17:13:43.256Z,100396.66
2022-09-17T17:16:17.381Z,100399.97
2022-09-17T17:18:44.903Z,100397.84
2022-09-17T17:21:13.531Z,100400.22
2022-09-17T17:23:40.596Z,100402.66
2022-09-17T17:26:06.953Z,100406.97
2022-09-17T17:28:35.556Z,100404.91
2022-09-17T17:31:04.679Z,100410.91
2022-09-17T17:33:31.174Z,100406.59
2022-09-17T17:36:07.282Z,100417.38
2022-09-17T17:38:35.687Z,100417.94
2022-09-17T17:41:03.491Z,100419.63
2022-09-17T17:43:30.049Z,100432.47
2022-09-17T17:45:56.511Z,100436.22
2022-09-17T17:48:22.946Z,100425.69
2022-09-17T17:50:53.397Z,100441.53
2022-09-17T17:53:22.885Z,100441.53
2022-09-17T17:56:00.539Z,100432.38
2022-09-17T17:58:33.048Z,100442.16
2022-09-17T18:01:00.285Z,100436.41
2022-09-17T18:03:26.803Z,100431.25
2022-09-17T18:06:00.545Z,100438.84
2022-09-17T18:08:28.014Z,100426.34
2022-09-17T18:10:56.358Z,100432.28
2022-09-17T18:13:24.031Z,100437.44
2022-09-17T18:16:02.743Z,100439.38
2022-09-17T18:18:35.606Z,100448.31
2022-09-17T18:21:07.077Z,100446.97
2022-09-17T18:23:36.024Z,100445.38
2022-09-17T18:26:04.757Z,100438.56
2022-09-17T18:28:33.450Z,100449.22
2022-09-17T18:31:09.621Z,100451.63
2022-09-17T18:33:36.345Z,100457.88
2022-09-17T18:36:05.371Z,100461.94
2022-09-17T18:38:32.830Z,100463.88
2022-09-17T18:41:04.406Z,100468.19
2022-09-17T18:43:32.874Z,100473.16
2022-09-17T18:45:59.270Z,100473.44
2022-09-17T18:48:25.913Z,100464.19
2022-09-17T18:51:07.549Z,100469.59
2022-09-17T18:53:36.868Z,100479.34
2022-09-17T18:56:10.686Z,100466.06
2022-09-17T18:58:37.264Z,100462.75
2022-09-17T19:01:07.666Z,100483.19
2022-09-17T19:03:35.292Z,100478.56
2022-09-17T19:06:04.864Z,100471.47
2022-09-17T19:08:31.409Z,100479.63
2022-09-17T19:10:58.635Z,100486.47
2022-09-17T19:13:25.922Z,100480.50
2022-09-17T19:15:53.416Z,100479.34
2022-09-17T19:18:20.143Z,100483.69
2022-09-17T19:20:46.500Z,100485.91
2022-09-17T19:23:13.274Z,100486.75
2022-09-17T19:26:17.179Z,100491.63
2022-09-17T19:28:43.770Z,100490.50
2022-09-17T19:31:12.791Z,100490.75
2022-09-17T19:33:39.912Z,100494.84
2022-09-17T19:36:12.466Z,100496.19
2022-09-17T19:38:45.926Z,100493.19
2022-09-17T19:41:18.491Z,100508.94
2022-09-17T19:43:45.973Z,100502.97
2022-09-17T19:46:13.571Z,100501.94
2022-09-17T19:48:47.966Z,100510.09
2022-09-17T19:51:15.762Z,100513.09
2022-09-17T19:53:42.621Z,100515.53
2022-09-17T19:56:14.073Z,100509.28
2022-09-17T19:58:41.388Z,100513.91
2022-09-17T20:01:08.554Z,100512.84
2022-09-17T20:03:35.488Z,100519.38
2022-09-17T20:06:05.523Z,100520.19
2022-09-17T20:08:32.668Z,100510.97
2022-09-17T20:11:07.415Z,100514.00
2022-09-17T20:13:34.736Z,100523.75
2022-09-17T20:16:10.835Z,100524.84
2022-09-17T20:18:37.778Z,100534.06
2022-09-17T20:21:09.746Z,100527.28
2022-09-17T20:23:36.152Z,100531.66
2022-09-17T20:26:03.459Z,100527.84
2022-09-17T20:28:29.890Z,100534.63
2022-09-17T20:31:07.575Z,100540.31
2022-09-17T20:33:34.458Z,100538.97
2022-09-17T20:36:02.497Z,100539.25
2022-09-17T20:39:10.744Z,100534.13
2022-09-17T20:41:17.207Z,100538.97
2022-09-17T20:43:46.833Z,100538.72
2022-09-17T20:46:13.969Z,100541.19
2022-09-17T20:48:41.812Z,100542.84
2022-09-17T20:51:15.245Z,100549.09
2022-09-17T20:53:42.499Z,100551.00
2022-09-17T20:56:14.465Z,100554.00
2022-09-17T20:58:48.681Z,100547.19
2022-09-17T21:01:21.964Z,100557.25
2022-09-17T21:03:51.072Z,100554.81
2022-09-17T21:06:26.330Z,100551.28
2022-09-17T21:08:55.275Z,100549.66
2022-09-17T21:11:23.407Z,100548.28
2022-09-17T21:13:50.105Z,100551.81
2022-09-17T21:16:16.938Z,100548.03
2022-09-17T21:18:43.834Z,100552.13
2022-09-17T21:21:16.150Z,100553.72
2022-09-17T21:23:43.689Z,100548.81
2022-09-17T21:26:35.773Z,100548.56
2022-09-17T21:29:02.606Z,100547.50
2022-09-17T21:31:32.958Z,100551.56
2022-09-17T21:34:02.718Z,100556.16
2022-09-17T21:36:32.383Z,100557.25
2022-09-17T21:39:02.165Z,100568.13
2022-09-17T21:41:29.106Z,100559.72
2022-09-17T21:43:56.267Z,100561.59
2022-09-17T21:46:25.322Z,100558.06
2022-09-17T21:48:57.629Z,100566.22
2022-09-17T21:51:37.062Z,100573.25
2022-09-17T21:54:06.542Z,100575.16
2022-09-17T21:56:33.606Z,100573.78
2022-09-17T21:59:02.921Z,100577.03
2022-09-17T22:01:33.069Z,100571.34
2022-09-17T22:04:01.903Z,100572.97
2022-09-17T22:06:31.284Z,100576.75
2022-09-17T22:08:59.651Z,100580.00
2022-09-17T22:11:31.987Z,100576.22
2022-09-17T22:14:05.228Z,100578.94
2022-09-17T22:16:33.302Z,100588.97
2022-09-17T22:18:59.795Z,100581.38
2022-09-17T22:21:28.044Z,100587.06
2022-09-17T22:23:56.909Z,100588.13
2022-09-17T22:26:24.978Z,100581.59
2022-09-17T22:28:52.485Z,100575.63
2022-09-17T22:31:19.685Z,100576.19
2022-09-17T22:33:49.997Z,100585.13
2022-09-17T22:36:19.750Z,100583.50
2022-09-17T22:38:48.472Z,100588.63
2022-09-17T22:41:17.874Z,100587.53
2022-09-17T22:43:44.793Z,100588.09
2022-09-17T22:46:12.759Z,100586.19
2022-09-17T22:48:41.073Z,100584.59
2022-09-17T22:51:07.942Z,100592.97
2022-09-17T22:53:36.351Z,100585.66
2022-09-17T22:56:05.321Z,100586.19
2022-09-17T22:58:32.216Z,100592.13
2022-09-17T23:01:04.341Z,100592.94
2022-09-17T23:03:31.158Z,100591.84
2022-09-17T23:06:02.531Z,100582.63
2022-09-17T23:08:29.027Z,100581.78
2022-09-17T23:10:56.255Z,100577.47
2022-09-17T23:13:22.853Z,100573.66
2022-09-17T23:15:49.548Z,100572.06
2022-09-17T23:18:16.423Z,100575.56
2022-09-17T23:20:42.869Z,100579.34
2022-09-17T23:23:10.136Z,100570.66
2022-09-17T23:25:36.578Z,100571.50
2022-09-17T23:28:02.956Z,100576.91
2022-09-17T23:30:29.397Z,100578.25
2022-09-17T23:32:56.813Z,100570.66
2022-09-17T23:35:24.517Z,100572.59
2022-09-17T23:37:50.998Z,100575.78
2022-09-17T23:40:18.408Z,100572.56
2022-09-17T23:42:45.361Z,100570.13
2022-09-17T23:45:12.168Z,100574.22
2022-09-17T23:47:39.065Z,100576.63
2022-09-17T23:50:05.867Z,100579.28
2022-09-17T23:52:32.346Z,100568.22
2022-09-17T23:54:58.771Z,100577.22
2022-09-17T23:57:25.636Z,100583.44
2022-09-17T23:59:52.527Z,100585.34
